createdAt,value
2017-08-17T00:01:45.539Z,11.12
2017-08-17T00:04:13.440Z,11.45
2017-08-17T00:06:44.417Z,11.37
2017-08-17T00:09:12.500Z,11.25
2017-08-17T00:11:39.638Z,12.08
2017-08-17T00:14:06.927Z,11.60
2017-08-17T00:16:42.185Z,10.42
2017-08-17T00:19:09.422Z,11.10
2017-08-17T00:21:37.951Z,12.12
2017-08-17T00:24:05.715Z,11.68
2017-08-17T00:26:33.258Z,12.05
2017-08-17T00:29:02.180Z,10.92
2017-08-17T00:31:30.001Z,12.15
2017-08-17T00:33:57.844Z,11.28
2017-08-17T00:36:25.882Z,10.93
2017-08-17T00:38:53.378Z,12.47
2017-08-17T00:41:20.475Z,12.40
2017-08-17T00:43:48.358Z,11.87
2017-08-17T00:46:16.197Z,11.48
2017-08-17T00:48:44.282Z,11.30
2017-08-17T00:51:11.396Z,12.90
2017-08-17T00:53:39.082Z,12.75
2017-08-17T00:56:06.449Z,12.20
2017-08-17T00:58:33.232Z,12.73
2017-08-17T01:01:00.356Z,12.53
2017-08-17T01:03:27.439Z,12.17
2017-08-17T01:05:54.995Z,12.93
2017-08-17T01:08:22.235Z,12.80
2017-08-17T01:10:49.838Z,14.23
2017-08-17T01:13:18.931Z,10.72
2017-08-17T01:15:47.299Z,13.53
2017-08-17T01:18:15.371Z,12.68
2017-08-17T01:20:42.163Z,11.52
2017-08-17T01:23:10.180Z,12.90
2017-08-17T01:25:37.880Z,14.10
2017-08-17T01:28:05.857Z,13.62
2017-08-17T01:30:34.718Z,12.63
2017-08-17T01:33:01.885Z,12.33
2017-08-17T01:35:29.336Z,14.22
2017-08-17T01:37:57.118Z,14.65
2017-08-17T01:40:24.191Z,13.75
2017-08-17T01:42:51.920Z,12.78
2017-08-17T01:45:21.227Z,13.65
2017-08-17T01:47:48.954Z,12.78
2017-08-17T01:50:16.009Z,13.08
2017-08-17T01:52:43.101Z,13.72
2017-08-17T01:55:10.850Z,13.75
2017-08-17T01:57:40.281Z,12.75
2017-08-17T02:02:41.093Z,12.50
2017-08-17T02:05:09.528Z,14.15
2017-08-17T02:07:37.612Z,13.97
2017-08-17T02:10:06.929Z,12.70
2017-08-17T02:12:34.480Z,13.17
2017-08-17T02:15:01.961Z,12.08
2017-08-17T02:17:30.132Z,14.40
2017-08-17T02:19:57.727Z,14.40
2017-08-17T02:22:25.629Z,16.60
2017-08-17T02:24:53.217Z,14.57
2017-08-17T02:27:21.218Z,13.97
2017-08-17T02:29:49.138Z,14.22
2017-08-17T02:32:17.006Z,13.43
2017-08-17T02:34:44.763Z,14.50
2017-08-17T02:37:14.323Z,15.57
2017-08-17T02:39:41.986Z,14.88
2017-08-17T02:42:09.158Z,12.17
2017-08-17T02:44:36.641Z,15.07
2017-08-17T02:47:04.620Z,14.42
2017-08-17T02:49:32.134Z,15.07
2017-08-17T02:51:58.911Z,14.63
2017-08-17T02:54:25.727Z,13.67
2017-08-17T02:56:53.701Z,13.83
2017-08-17T02:59:20.762Z,15.78
2017-08-17T03:01:48.443Z,13.97
2017-08-17T03:04:15.325Z,12.85
2017-08-17T03:06:43.354Z,15.20
2017-08-17T03:09:10.633Z,14.83
2017-08-17T03:11:37.724Z,13.47
2017-08-17T03:14:05.533Z,14.27
2017-08-17T03:16:33.112Z,14.60
2017-08-17T03:19:00.625Z,14.50
2017-08-17T03:21:28.682Z,16.55
2017-08-17T03:23:56.220Z,14.58
2017-08-17T03:26:24.766Z,15.97
2017-08-17T03:28:51.851Z,16.42
2017-08-17T03:31:19.562Z,16.55
2017-08-17T03:33:46.708Z,16.40
2017-08-17T03:36:13.489Z,17.27
2017-08-17T03:38:41.053Z,14.92
2017-08-17T03:41:10.743Z,15.22
2017-08-17T03:43:37.901Z,15.98
2017-08-17T03:46:05.006Z,13.95
2017-08-17T03:48:33.094Z,15.15
2017-08-17T03:51:00.759Z,16.13
2017-08-17T03:53:28.185Z,14.55
2017-08-17T03:55:55.272Z,15.25
2017-08-17T03:58:22.852Z,17.40
2017-08-17T04:00:51.677Z,16.07
2017-08-17T04:03:18.445Z,22.47
2017-08-17T04:05:45.579Z,14.67
2017-08-17T04:08:13.241Z,15.58
2017-08-17T04:10:40.305Z,14.20
2017-08-17T04:13:07.361Z,17.68
2017-08-17T04:15:34.596Z,16.15
2017-08-17T04:18:02.018Z,15.03
2017-08-17T04:20:31.740Z,14.45
2017-08-17T04:22:59.883Z,16.85
2017-08-17T04:25:28.014Z,17.82
2017-08-17T04:27:55.166Z,14.62
2017-08-17T04:30:22.264Z,15.65
2017-08-17T04:32:49.352Z,14.70
2017-08-17T04:35:16.927Z,14.38
2017-08-17T04:37:44.169Z,13.82
2017-08-17T04:40:11.312Z,14.37
2017-08-17T04:42:39.279Z,16.30
2017-08-17T04:45:07.036Z,14.60
2017-08-17T04:47:35.210Z,14.85
2017-08-17T04:50:04.713Z,17.23
2017-08-17T04:52:33.455Z,14.53
2017-08-17T04:55:01.625Z,15.42
2017-08-17T04:57:35.793Z,15.47
2017-08-17T05:00:03.539Z,16.12
2017-08-17T05:02:31.490Z,15.67
2017-08-17T05:04:58.539Z,15.33
2017-08-17T05:07:27.444Z,14.90
2017-08-17T05:09:54.604Z,13.90
2017-08-17T05:12:23.287Z,14.88
2017-08-17T05:14:53.700Z,13.23
2017-08-17T05:17:20.698Z,13.50
2017-08-17T05:19:47.619Z,13.50
2017-08-17T05:22:15.423Z,13.78
2017-08-17T05:24:42.970Z,13.47
2017-08-17T05:27:12.633Z,13.93
2017-08-17T05:29:39.405Z,13.90
2017-08-17T05:32:06.452Z,12.73
2017-08-17T05:34:33.864Z,12.85
2017-08-17T05:37:00.650Z,13.80
2017-08-17T05:39:27.709Z,13.73
2017-08-17T05:41:54.872Z,12.27
2017-08-17T05:44:21.890Z,11.93
2017-08-17T05:46:49.068Z,11.48
2017-08-17T05:49:16.281Z,13.22
2017-08-17T05:51:43.462Z,12.67
2017-08-17T05:54:10.509Z,12.10
2017-08-17T05:56:37.629Z,11.43
2017-08-17T05:59:04.644Z,11.38
2017-08-17T06:01:31.745Z,11.03
2017-08-17T06:03:58.548Z,11.02
2017-08-17T06:06:25.608Z,12.18
2017-08-17T06:08:52.618Z,11.08
2017-08-17T06:11:19.724Z,11.50
2017-08-17T06:13:46.806Z,10.30
2017-08-17T06:16:13.940Z,10.12
2017-08-17T06:18:41.083Z,11.40
2017-08-17T06:21:08.730Z,11.86
2017-08-17T06:23:35.820Z,9.68
2017-08-17T06:26:03.134Z,10.60
2017-08-17T06:28:30.282Z,10.34
2017-08-17T06:30:57.360Z,9.50
2017-08-17T06:33:24.227Z,9.70
2017-08-17T06:35:51.389Z,10.68
2017-08-17T06:38:19.898Z,11.08
2017-08-17T06:40:48.331Z,10.30
2017-08-17T06:43:16.969Z,10.34
2017-08-17T06:45:44.525Z,10.52
2017-08-17T06:48:11.599Z,10.14
2017-08-17T06:50:39.465Z,9.32
2017-08-17T06:53:06.570Z,11.42
2017-08-17T06:55:33.717Z,9.68
2017-08-17T06:58:00.717Z,9.18
2017-08-17T07:00:27.705Z,9.40
2017-08-17T07:02:54.779Z,10.22
2017-08-17T07:05:21.733Z,8.18
2017-08-17T07:07:48.498Z,9.96
2017-08-17T07:10:15.637Z,10.42
2017-08-17T07:12:43.439Z,10.04
2017-08-17T07:15:10.464Z,9.30
2017-08-17T07:17:37.532Z,9.26
2017-08-17T07:20:04.616Z,9.32
2017-08-17T07:22:32.936Z,8.68
2017-08-17T07:25:00.743Z,8.48
2017-08-17T07:27:28.975Z,8.60
2017-08-17T07:29:56.263Z,8.14
2017-08-17T07:32:23.045Z,9.38
2017-08-17T07:34:50.550Z,7.54
2017-08-17T07:37:23.412Z,7.72
2017-08-17T07:39:52.713Z,8.18
2017-08-17T07:42:25.347Z,6.98
2017-08-17T07:44:59.458Z,6.74
2017-08-17T07:47:29.267Z,7.24
2017-08-17T07:49:56.672Z,7.38
2017-08-17T07:52:28.802Z,7.40
2017-08-17T07:54:55.573Z,7.44
2017-08-17T07:57:29.541Z,6.76
2017-08-17T07:59:56.310Z,6.88
2017-08-17T08:02:23.407Z,6.02
2017-08-17T08:04:51.137Z,6.04
2017-08-17T08:07:20.911Z,7.24
2017-08-17T08:09:48.326Z,6.10
2017-08-17T08:12:18.840Z,5.64
2017-08-17T08:15:01.308Z,6.08
2017-08-17T08:17:28.725Z,6.90
2017-08-17T08:20:04.610Z,6.38
2017-08-17T08:22:40.126Z,6.18
2017-08-17T08:25:06.917Z,6.64
2017-08-17T08:27:35.255Z,6.38
2017-08-17T08:30:09.493Z,7.62
2017-08-17T08:32:37.075Z,7.84
2017-08-17T08:35:05.434Z,6.02
2017-08-17T08:37:33.003Z,6.12
2017-08-17T08:40:00.718Z,5.68
2017-08-17T08:42:33.548Z,4.68
2017-08-17T08:45:01.147Z,5.48
2017-08-17T08:47:39.833Z,5.46
2017-08-17T08:50:14.550Z,5.70
2017-08-17T08:52:41.333Z,4.70
2017-08-17T08:55:09.334Z,5.04
2017-08-17T08:57:39.137Z,5.26
2017-08-17T09:00:13.336Z,4.88
2017-08-17T09:02:41.898Z,6.70
2017-08-17T09:05:12.496Z,5.18
2017-08-17T09:08:04.270Z,3.88
2017-08-17T09:10:37.395Z,4.52
2017-08-17T09:13:09.122Z,4.06
2017-08-17T09:15:44.108Z,4.28
2017-08-17T09:18:14.272Z,4.44
2017-08-17T09:20:41.044Z,4.72
2017-08-17T09:23:08.673Z,4.40
2017-08-17T09:25:36.010Z,3.62
2017-08-17T09:28:12.788Z,3.90
2017-08-17T09:30:45.745Z,3.64
2017-08-17T09:33:14.536Z,3.62
2017-08-17T09:35:48.395Z,4.60
2017-08-17T09:38:15.983Z,3.86
2017-08-17T09:40:46.503Z,4.34
2017-08-17T09:43:14.921Z,4.04
2017-08-17T09:45:42.984Z,4.32
2017-08-17T09:48:09.749Z,4.02
2017-08-17T09:50:37.252Z,4.18
2017-08-17T09:53:04.032Z,4.32
2017-08-17T09:55:32.802Z,4.66
2017-08-17T09:57:59.716Z,3.88
2017-08-17T10:00:28.433Z,4.74
2017-08-17T10:02:56.284Z,5.42
2017-08-17T10:05:31.454Z,4.00
2017-08-17T10:08:02.011Z,3.90
2017-08-17T10:10:36.317Z,4.54
2017-08-17T10:13:10.623Z,4.18
2017-08-17T10:15:38.290Z,3.40
2017-08-17T10:18:05.638Z,4.70
2017-08-17T10:20:34.697Z,4.12
2017-08-17T10:23:02.412Z,3.78
2017-08-17T10:25:30.027Z,4.06
2017-08-17T10:27:57.294Z,3.42
2017-08-17T10:33:10.177Z,3.78
2017-08-17T10:35:44.212Z,3.56
2017-08-17T10:38:13.731Z,3.18
2017-08-17T10:40:47.955Z,4.06
2017-08-17T10:43:14.760Z,4.36
2017-08-17T10:45:42.154Z,4.00
2017-08-17T10:48:16.330Z,4.30
2017-08-17T10:50:43.113Z,4.10
2017-08-17T10:53:10.661Z,3.50
2017-08-17T10:55:44.493Z,4.42
2017-08-17T11:00:59.017Z,3.60
2017-08-17T11:03:32.254Z,3.62
2017-08-17T11:06:06.463Z,3.50
2017-08-17T11:08:34.159Z,3.86
2017-08-17T11:11:05.434Z,3.76
2017-08-17T11:13:35.624Z,4.08
2017-08-17T11:16:02.822Z,4.86
2017-08-17T11:18:30.317Z,4.50
2017-08-17T11:20:57.448Z,6.20
2017-08-17T11:23:24.439Z,5.34
2017-08-17T11:25:53.649Z,4.40
2017-08-17T11:28:20.975Z,4.98
2017-08-17T11:30:54.098Z,4.34
2017-08-17T11:33:20.884Z,4.98
2017-08-17T11:35:47.760Z,5.24
2017-08-17T11:38:14.930Z,4.76
2017-08-17T11:40:41.934Z,3.80
2017-08-17T11:43:08.742Z,4.32
2017-08-17T11:45:37.066Z,4.70
2017-08-17T11:48:04.829Z,5.04
2017-08-17T11:50:33.704Z,4.80
2017-08-17T11:53:05.102Z,3.92
2017-08-17T11:55:37.332Z,4.48
2017-08-17T11:58:05.045Z,12.06
2017-08-17T12:00:36.485Z,5.48
2017-08-17T12:03:10.630Z,4.54
2017-08-17T12:05:39.813Z,4.32
2017-08-17T12:08:07.495Z,5.14
2017-08-17T12:10:35.903Z,4.74
2017-08-17T12:13:04.102Z,5.76
2017-08-17T12:15:34.651Z,4.70
2017-08-17T12:18:08.955Z,3.96
2017-08-17T12:20:36.361Z,4.98
2017-08-17T12:23:04.230Z,3.86
2017-08-17T12:25:38.334Z,4.30
2017-08-17T12:28:06.208Z,5.88
2017-08-17T12:33:55.818Z,4.64
2017-08-17T12:36:22.628Z,6.04
2017-08-17T12:38:49.717Z,4.42
2017-08-17T12:41:17.145Z,4.58
2017-08-17T12:43:43.893Z,4.82
2017-08-17T12:46:10.900Z,6.48
2017-08-17T12:48:37.785Z,4.30
2017-08-17T12:51:09.139Z,4.22
2017-08-17T12:53:38.738Z,3.70
2017-08-17T12:56:05.604Z,4.22
2017-08-17T12:58:32.982Z,4.40
2017-08-17T13:01:00.475Z,4.56
2017-08-17T13:03:27.931Z,4.74
2017-08-17T13:05:58.573Z,3.98
2017-08-17T13:08:31.691Z,6.30
2017-08-17T13:11:01.367Z,6.58
2017-08-17T13:13:28.759Z,5.50
2017-08-17T13:15:56.143Z,3.54
2017-08-17T13:18:33.564Z,4.08
2017-08-17T13:21:01.410Z,3.80
2017-08-17T13:26:13.559Z,5.56
2017-08-17T13:28:54.227Z,4.18
2017-08-17T13:31:21.340Z,3.60
2017-08-17T13:33:49.000Z,4.40
2017-08-17T13:36:16.355Z,4.00
2017-08-17T13:38:43.854Z,4.52
2017-08-17T13:41:16.935Z,3.28
2017-08-17T13:43:44.465Z,4.16
2017-08-17T13:46:11.864Z,4.34
2017-08-17T13:48:46.253Z,3.84
2017-08-17T13:51:23.702Z,4.98
2017-08-17T13:53:56.843Z,3.96
2017-08-17T13:56:24.396Z,4.04
2017-08-17T13:58:52.077Z,4.08
2017-08-17T14:01:19.284Z,4.44
2017-08-17T14:03:47.755Z,5.30
2017-08-17T14:06:15.209Z,4.60
2017-08-17T14:08:42.000Z,4.12
2017-08-17T14:11:17.395Z,4.40
2017-08-17T14:13:44.357Z,4.18
2017-08-17T14:16:11.496Z,4.74
2017-08-17T14:18:38.538Z,8.14
2017-08-17T14:21:05.714Z,5.14
2017-08-17T14:23:33.316Z,4.08
2017-08-17T14:26:00.493Z,3.84
2017-08-17T14:28:28.088Z,4.08
2017-08-17T14:30:55.106Z,3.90
2017-08-17T14:33:22.245Z,4.10
2017-08-17T14:38:42.359Z,6.50
2017-08-17T14:41:09.156Z,3.82
2017-08-17T14:43:42.616Z,3.32
2017-08-17T14:46:11.408Z,3.78
2017-08-17T14:48:41.806Z,3.30
2017-08-17T14:51:08.914Z,3.56
2017-08-17T14:53:43.715Z,4.66
2017-08-17T14:56:23.310Z,3.32
2017-08-17T14:58:56.689Z,4.16
2017-08-17T15:01:27.315Z,3.94
2017-08-17T15:04:03.333Z,4.40
2017-08-17T15:06:30.858Z,3.74
2017-08-17T15:08:57.646Z,6.44
2017-08-17T15:11:25.282Z,4.88
2017-08-17T15:13:52.316Z,5.04
2017-08-17T15:16:19.511Z,4.76
2017-08-17T15:18:46.750Z,4.58
2017-08-17T15:21:14.124Z,4.78
2017-08-17T15:23:41.723Z,4.62
2017-08-17T15:26:14.868Z,4.96
2017-08-17T15:28:42.043Z,6.26
2017-08-17T15:31:09.149Z,5.72
2017-08-17T15:33:36.321Z,6.26
2017-08-17T15:36:04.820Z,6.20
2017-08-17T15:38:32.184Z,4.14
2017-08-17T15:41:03.145Z,6.08
2017-08-17T15:43:30.001Z,4.62
2017-08-17T15:45:57.257Z,5.44
2017-08-17T15:48:24.085Z,5.16
2017-08-17T15:50:51.321Z,5.36
2017-08-17T15:53:18.461Z,5.42
2017-08-17T15:55:46.046Z,4.30
2017-08-17T15:58:12.848Z,4.16
2017-08-17T16:00:43.013Z,5.06
2017-08-17T16:03:11.282Z,4.92
2017-08-17T16:05:42.964Z,4.60
2017-08-17T16:08:23.406Z,5.84
2017-08-17T16:10:50.719Z,4.82
2017-08-17T16:13:17.809Z,4.02
2017-08-17T16:15:50.962Z,4.74
2017-08-17T16:18:30.250Z,3.42
2017-08-17T16:20:57.060Z,3.53
2017-08-17T16:23:24.251Z,4.48
2017-08-17T16:25:57.246Z,4.18
2017-08-17T16:28:24.415Z,3.88
2017-08-17T16:30:59.533Z,4.30
2017-08-17T16:33:29.341Z,4.48
2017-08-17T16:35:56.103Z,4.20
2017-08-17T16:38:23.143Z,4.32
2017-08-17T16:40:51.279Z,4.10
2017-08-17T16:43:18.167Z,4.38
2017-08-17T16:45:45.041Z,5.17
2017-08-17T16:48:12.239Z,4.60
2017-08-17T16:50:42.728Z,4.88
2017-08-17T16:53:13.147Z,4.28
2017-08-17T16:55:41.681Z,5.52
2017-08-17T16:58:11.970Z,4.58
2017-08-17T17:00:39.052Z,4.30
2017-08-17T17:03:05.888Z,4.10
2017-08-17T17:05:33.527Z,4.73
2017-08-17T17:08:00.685Z,5.08
2017-08-17T17:10:28.043Z,5.50
2017-08-17T17:12:55.486Z,5.12
2017-08-17T17:15:22.578Z,5.05
2017-08-17T17:17:50.933Z,6.10
2017-08-17T17:20:18.449Z,4.82
2017-08-17T17:22:45.511Z,6.10
2017-08-17T17:25:13.260Z,6.07
2017-08-17T17:27:40.473Z,6.92
2017-08-17T17:30:07.305Z,7.06
2017-08-17T17:32:35.026Z,6.58
2017-08-17T17:35:04.636Z,9.22
2017-08-17T17:40:05.674Z,11.87
2017-08-17T17:42:35.082Z,10.97
2017-08-17T17:47:37.383Z,10.15
2017-08-17T17:52:40.634Z,10.42
2017-08-17T17:55:07.896Z,11.08
2017-08-17T17:57:37.322Z,10.74
2017-08-17T18:00:06.171Z,11.88
2017-08-17T18:02:33.960Z,11.40
2017-08-17T18:05:01.406Z,12.50
2017-08-17T18:07:28.805Z,11.74
2017-08-17T18:09:58.334Z,11.25
2017-08-17T18:12:26.415Z,13.54
2017-08-17T18:14:56.398Z,11.70
2017-08-17T18:17:23.420Z,11.73
2017-08-17T18:19:51.793Z,12.92
2017-08-17T18:22:19.788Z,12.25
2017-08-17T18:24:47.039Z,12.13
2017-08-17T18:29:47.872Z,12.07
2017-08-17T18:32:14.656Z,12.52
2017-08-17T18:34:46.532Z,12.88
2017-08-17T18:37:14.371Z,11.82
2017-08-17T18:39:41.883Z,10.45
2017-08-17T18:42:09.185Z,9.77
2017-08-17T18:44:36.580Z,9.12
2017-08-17T18:47:03.683Z,8.32
2017-08-17T18:49:31.004Z,7.35
2017-08-17T18:51:59.323Z,7.38
2017-08-17T18:54:26.949Z,6.98
2017-08-17T18:56:53.771Z,7.12
2017-08-17T18:59:22.899Z,6.66
2017-08-17T19:01:50.248Z,7.17
2017-08-17T19:04:17.162Z,6.53
2017-08-17T19:06:48.077Z,6.02
2017-08-17T19:09:14.941Z,7.25
2017-08-17T19:11:41.890Z,6.75
2017-08-17T19:14:10.297Z,6.65
2017-08-17T19:19:33.256Z,6.02
2017-08-17T19:22:01.475Z,5.34
2017-08-17T19:24:30.980Z,5.77
2017-08-17T19:26:58.701Z,6.48
2017-08-17T19:29:28.624Z,6.22
2017-08-17T19:32:00.917Z,5.88
2017-08-17T19:34:28.635Z,6.17
2017-08-17T19:36:58.108Z,5.52
2017-08-17T19:39:26.749Z,6.95
2017-08-17T19:41:57.736Z,7.05
2017-08-17T19:44:27.490Z,6.70
2017-08-17T19:47:06.468Z,5.92
2017-08-17T19:49:33.295Z,6.33
2017-08-17T19:52:05.505Z,6.05
2017-08-17T19:54:38.500Z,6.88
2017-08-17T19:57:12.548Z,5.98
2017-08-17T19:59:40.539Z,5.98
2017-08-17T20:03:38.880Z,6.24
2017-08-17T20:06:17.881Z,6.18
2017-08-17T20:08:50.885Z,5.77
2017-08-17T20:11:19.675Z,5.77
2017-08-17T20:13:47.020Z,5.82
2017-08-17T20:16:18.395Z,6.43
2017-08-17T20:18:49.491Z,6.40
2017-08-17T20:21:17.265Z,7.02
2017-08-17T20:23:47.757Z,5.78
2017-08-17T20:26:14.961Z,5.50
2017-08-17T20:28:52.178Z,6.57
2017-08-17T20:34:09.426Z,6.12
2017-08-17T20:36:50.001Z,6.28
2017-08-17T20:39:20.924Z,5.82
2017-08-17T20:41:52.206Z,7.43
2017-08-17T20:44:19.801Z,6.05
2017-08-17T20:46:47.456Z,5.70
2017-08-17T20:51:56.119Z,6.77
2017-08-17T20:54:30.270Z,6.45
2017-08-17T20:56:57.666Z,6.22
2017-08-17T20:59:24.696Z,6.92
2017-08-17T21:01:54.701Z,7.15
2017-08-17T21:04:21.890Z,7.85
2017-08-17T21:06:50.190Z,6.55
2017-08-17T21:09:18.746Z,6.55
2017-08-17T21:11:45.669Z,7.15
2017-08-17T21:14:13.912Z,6.73
2017-08-17T21:16:41.358Z,6.45
2017-08-17T21:19:08.203Z,7.10
2017-08-17T21:21:35.427Z,6.47
2017-08-17T21:24:03.614Z,7.65
2017-08-17T21:26:33.081Z,6.90
2017-08-17T21:29:06.257Z,7.72
2017-08-17T21:31:33.690Z,7.45
2017-08-17T21:34:00.503Z,6.97
2017-08-17T21:36:30.603Z,8.80
2017-08-17T21:39:00.461Z,6.60
2017-08-17T21:41:29.890Z,6.57
2017-08-17T21:44:06.331Z,7.03
2017-08-17T21:46:34.447Z,6.60
2017-08-17T21:49:02.214Z,7.58
2017-08-17T21:51:29.746Z,6.68
2017-08-17T21:53:56.919Z,5.55
2017-08-17T21:56:24.180Z,6.48
2017-08-17T21:58:53.736Z,6.08
2017-08-17T22:01:22.065Z,6.78
2017-08-17T22:03:49.498Z,6.12
2017-08-17T22:06:18.195Z,5.95
2017-08-17T22:08:46.106Z,6.10
2017-08-17T22:11:12.901Z,6.17
2017-08-17T22:13:41.788Z,7.03
2017-08-17T22:16:08.928Z,5.52
2017-08-17T22:18:40.349Z,6.60
2017-08-17T22:21:12.138Z,6.53
2017-08-17T22:23:40.837Z,6.45
2017-08-17T22:26:07.948Z,6.10
2017-08-17T22:28:35.576Z,8.40
2017-08-17T22:31:03.613Z,5.97
2017-08-17T22:33:31.284Z,6.58
2017-08-17T22:35:58.349Z,6.05
2017-08-17T22:38:27.517Z,5.30
2017-08-17T22:40:56.694Z,6.33
2017-08-17T22:43:24.375Z,5.07
2017-08-17T22:45:55.016Z,6.03
2017-08-17T22:48:21.839Z,6.35
2017-08-17T22:50:48.850Z,5.95
2017-08-17T22:53:15.688Z,7.33
2017-08-17T22:55:42.778Z,6.53
2017-08-17T22:58:14.842Z,5.85
2017-08-17T23:00:44.931Z,5.35
2017-08-17T23:03:13.490Z,5.20
2017-08-17T23:05:41.291Z,6.98
2017-08-17T23:08:08.330Z,5.82
2017-08-17T23:10:35.141Z,4.78
2017-08-17T23:13:03.539Z,5.15
2017-08-17T23:15:31.314Z,5.35
2017-08-17T23:17:58.978Z,5.22
2017-08-17T23:20:26.828Z,5.28
2017-08-17T23:22:55.906Z,4.97
2017-08-17T23:25:24.256Z,5.67
2017-08-17T23:27:51.984Z,5.40
2017-08-17T23:30:19.101Z,8.68
2017-08-17T23:32:46.367Z,5.08
2017-08-17T23:35:13.123Z,6.40
2017-08-17T23:37:40.747Z,4.42
2017-08-17T23:40:08.267Z,4.82
2017-08-17T23:42:36.420Z,4.53
2017-08-17T23:45:03.528Z,5.00
2017-08-17T23:47:32.619Z,4.50
2017-08-17T23:50:00.345Z,5.48
2017-08-17T23:52:27.417Z,5.32
2017-08-17T23:54:55.557Z,4.80
2017-08-17T23:57:23.892Z,4.27
2017-08-17T23:59:50.743Z,4.37
